sensor_id;sensor_type;location;lat;lon;timestamp;P1;durP1;ratioP1;P2;durP2;ratioP2
37655;SDS011;23498;50.958;3.124;2022-10-30T00:00:40;23.83;;;9.57;;
37655;SDS011;23498;50.958;3.124;2022-10-30T00:03:08;18.30;;;10.63;;
37655;SDS011;23498;50.958;3.124;2022-10-30T00:05:35;18.67;;;9.45;;
37655;SDS011;23498;50.958;3.124;2022-10-30T00:08:01;16.08;;;9.85;;
37655;SDS011;23498;50.958;3.124;2022-10-30T00:10:27;18.38;;;9.73;;
37655;SDS011;23498;50.958;3.124;2022-10-30T00:12:53;14.88;;;9.18;;
37655;SDS011;23498;50.958;3.124;2022-10-30T00:15:19;17.63;;;9.65;;
37655;SDS011;23498;50.958;3.124;2022-10-30T00:17:45;19.17;;;9.77;;
37655;SDS011;23498;50.958;3.124;2022-10-30T00:20:10;21.10;;;9.50;;
37655;SDS011;23498;50.958;3.124;2022-10-30T00:22:36;18.50;;;9.07;;
37655;SDS011;23498;50.958;3.124;2022-10-30T00:25:03;17.90;;;9.73;;
37655;SDS011;23498;50.958;3.124;2022-10-30T00:27:29;21.60;;;10.90;;
37655;SDS011;23498;50.958;3.124;2022-10-30T00:29:56;19.75;;;10.50;;
37655;SDS011;23498;50.958;3.124;2022-10-30T00:32:22;25.65;;;9.80;;
37655;SDS011;23498;50.958;3.124;2022-10-30T00:34:47;19.65;;;10.27;;
37655;SDS011;23498;50.958;3.124;2022-10-30T00:37:13;19.73;;;9.65;;
37655;SDS011;23498;50.958;3.124;2022-10-30T00:39:39;19.63;;;9.50;;
37655;SDS011;23498;50.958;3.124;2022-10-30T00:42:07;20.55;;;9.68;;
37655;SDS011;23498;50.958;3.124;2022-10-30T00:47:12;18.55;;;10.27;;
37655;SDS011;23498;50.958;3.124;2022-10-30T00:49:46;17.40;;;10.25;;
37655;SDS011;23498;50.958;3.124;2022-10-30T00:52:14;17.73;;;9.85;;
37655;SDS011;23498;50.958;3.124;2022-10-30T00:54:40;20.60;;;9.23;;
37655;SDS011;23498;50.958;3.124;2022-10-30T00:57:06;21.35;;;9.60;;
37655;SDS011;23498;50.958;3.124;2022-10-30T00:59:33;17.40;;;8.65;;
37655;SDS011;23498;50.958;3.124;2022-10-30T01:02:00;17.48;;;8.68;;
37655;SDS011;23498;50.958;3.124;2022-10-30T01:04:27;17.10;;;8.68;;
37655;SDS011;23498;50.958;3.124;2022-10-30T01:06:54;19.98;;;9.77;;
37655;SDS011;23498;50.958;3.124;2022-10-30T01:09:20;16.92;;;9.15;;
37655;SDS011;23498;50.958;3.124;2022-10-30T01:11:47;18.25;;;9.30;;
37655;SDS011;23498;50.958;3.124;2022-10-30T01:14:14;20.20;;;9.45;;
37655;SDS011;23498;50.958;3.124;2022-10-30T01:22:02;14.88;;;8.48;;
37655;SDS011;23498;50.958;3.124;2022-10-30T01:24:42;15.77;;;9.02;;
37655;SDS011;23498;50.958;3.124;2022-10-30T01:29:49;17.40;;;9.25;;
37655;SDS011;23498;50.958;3.124;2022-10-30T01:34:52;19.15;;;8.85;;
37655;SDS011;23498;50.958;3.124;2022-10-30T01:39:55;14.38;;;8.20;;
37655;SDS011;23498;50.958;3.124;2022-10-30T01:45:05;15.75;;;7.82;;
37655;SDS011;23498;50.958;3.124;2022-10-30T01:53:15;17.42;;;9.07;;
37655;SDS011;23498;50.958;3.124;2022-10-30T01:58:31;18.35;;;7.88;;
37655;SDS011;23498;50.958;3.124;2022-10-30T02:00:59;18.08;;;8.95;;
37655;SDS011;23498;50.958;3.124;2022-10-30T02:03:26;19.00;;;8.38;;
37655;SDS011;23498;50.958;3.124;2022-10-30T02:05:52;21.45;;;8.98;;
37655;SDS011;23498;50.958;3.124;2022-10-30T02:08:19;19.50;;;8.70;;
37655;SDS011;23498;50.958;3.124;2022-10-30T02:10:46;19.95;;;9.45;;
37655;SDS011;23498;50.958;3.124;2022-10-30T02:13:13;18.83;;;9.05;;
37655;SDS011;23498;50.958;3.124;2022-10-30T02:15:39;17.33;;;9.85;;
37655;SDS011;23498;50.958;3.124;2022-10-30T02:18:05;12.60;;;9.13;;
37655;SDS011;23498;50.958;3.124;2022-10-30T02:20:33;18.92;;;8.85;;
37655;SDS011;23498;50.958;3.124;2022-10-30T02:22:59;17.27;;;9.70;;
37655;SDS011;23498;50.958;3.124;2022-10-30T02:25:25;22.38;;;9.95;;
37655;SDS011;23498;50.958;3.124;2022-10-30T02:27:51;19.50;;;9.60;;
37655;SDS011;23498;50.958;3.124;2022-10-30T02:30:17;17.83;;;9.73;;
37655;SDS011;23498;50.958;3.124;2022-10-30T02:32:43;17.80;;;9.02;;
37655;SDS011;23498;50.958;3.124;2022-10-30T02:35:09;17.42;;;8.88;;
37655;SDS011;23498;50.958;3.124;2022-10-30T02:37:35;17.27;;;8.73;;
37655;SDS011;23498;50.958;3.124;2022-10-30T02:40:04;15.90;;;8.82;;
37655;SDS011;23498;50.958;3.124;2022-10-30T02:42:32;14.88;;;8.85;;
37655;SDS011;23498;50.958;3.124;2022-10-30T02:44:58;18.95;;;8.85;;
37655;SDS011;23498;50.958;3.124;2022-10-30T02:47:24;16.73;;;8.80;;
37655;SDS011;23498;50.958;3.124;2022-10-30T02:49:50;20.45;;;9.10;;
37655;SDS011;23498;50.958;3.124;2022-10-30T02:52:16;18.38;;;8.93;;
37655;SDS011;23498;50.958;3.124;2022-10-30T02:54:42;18.70;;;8.80;;
37655;SDS011;23498;50.958;3.124;2022-10-30T02:57:08;15.95;;;8.73;;
37655;SDS011;23498;50.958;3.124;2022-10-30T02:59:34;17.92;;;9.10;;
37655;SDS011;23498;50.958;3.124;2022-10-30T03:02:00;17.45;;;8.90;;
37655;SDS011;23498;50.958;3.124;2022-10-30T03:04:26;20.85;;;9.38;;
37655;SDS011;23498;50.958;3.124;2022-10-30T03:06:52;16.92;;;8.90;;
37655;SDS011;23498;50.958;3.124;2022-10-30T03:09:18;15.50;;;9.15;;
37655;SDS011;23498;50.958;3.124;2022-10-30T03:11:44;17.33;;;9.23;;
37655;SDS011;23498;50.958;3.124;2022-10-30T03:14:10;16.10;;;9.48;;
37655;SDS011;23498;50.958;3.124;2022-10-30T03:16:36;21.02;;;9.55;;
37655;SDS011;23498;50.958;3.124;2022-10-30T03:19:04;18.25;;;8.75;;
37655;SDS011;23498;50.958;3.124;2022-10-30T03:21:30;18.02;;;9.48;;
37655;SDS011;23498;50.958;3.124;2022-10-30T03:23:56;18.70;;;9.55;;
37655;SDS011;23498;50.958;3.124;2022-10-30T03:26:23;15.60;;;9.23;;
37655;SDS011;23498;50.958;3.124;2022-10-30T03:28:49;16.00;;;8.38;;
37655;SDS011;23498;50.958;3.124;2022-10-30T03:31:16;17.45;;;9.35;;
37655;SDS011;23498;50.958;3.124;2022-10-30T03:33:42;17.92;;;9.05;;
37655;SDS011;23498;50.958;3.124;2022-10-30T03:36:08;21.63;;;9.77;;
37655;SDS011;23498;50.958;3.124;2022-10-30T03:38:35;18.45;;;10.07;;
37655;SDS011;23498;50.958;3.124;2022-10-30T03:41:01;20.45;;;10.07;;
37655;SDS011;23498;50.958;3.124;2022-10-30T03:43:27;18.58;;;9.85;;
37655;SDS011;23498;50.958;3.124;2022-10-30T03:45:54;18.75;;;9.30;;
37655;SDS011;23498;50.958;3.124;2022-10-30T03:48:24;17.70;;;9.32;;
37655;SDS011;23498;50.958;3.124;2022-10-30T03:50:51;19.20;;;9.18;;
37655;SDS011;23498;50.958;3.124;2022-10-30T03:53:17;17.05;;;9.45;;
37655;SDS011;23498;50.958;3.124;2022-10-30T03:55:43;22.40;;;9.68;;
37655;SDS011;23498;50.958;3.124;2022-10-30T03:58:09;17.08;;;9.50;;
37655;SDS011;23498;50.958;3.124;2022-10-30T04:00:35;17.05;;;9.05;;
37655;SDS011;23498;50.958;3.124;2022-10-30T04:03:04;17.77;;;9.60;;
37655;SDS011;23498;50.958;3.124;2022-10-30T04:05:30;18.50;;;9.20;;
37655;SDS011;23498;50.958;3.124;2022-10-30T04:08:00;21.00;;;10.20;;
37655;SDS011;23498;50.958;3.124;2022-10-30T04:10:26;18.45;;;9.75;;
37655;SDS011;23498;50.958;3.124;2022-10-30T04:12:58;18.02;;;9.82;;
37655;SDS011;23498;50.958;3.124;2022-10-30T04:15:24;19.27;;;10.88;;
37655;SDS011;23498;50.958;3.124;2022-10-30T04:17:50;20.13;;;9.45;;
37655;SDS011;23498;50.958;3.124;2022-10-30T04:20:16;20.50;;;10.13;;
37655;SDS011;23498;50.958;3.124;2022-10-30T04:22:43;18.40;;;10.13;;
37655;SDS011;23498;50.958;3.124;2022-10-30T04:25:09;20.08;;;10.15;;
37655;SDS011;23498;50.958;3.124;2022-10-30T04:27:41;18.67;;;10.40;;
37655;SDS011;23498;50.958;3.124;2022-10-30T04:30:08;20.42;;;10.75;;
37655;SDS011;23498;50.958;3.124;2022-10-30T04:32:34;21.20;;;10.00;;
37655;SDS011;23498;50.958;3.124;2022-10-30T04:35:00;17.75;;;10.30;;
37655;SDS011;23498;50.958;3.124;2022-10-30T04:37:27;19.45;;;9.80;;
37655;SDS011;23498;50.958;3.124;2022-10-30T04:39:54;22.02;;;10.75;;
37655;SDS011;23498;50.958;3.124;2022-10-30T04:42:19;19.58;;;10.00;;
37655;SDS011;23498;50.958;3.124;2022-10-30T04:44:45;17.88;;;10.60;;
37655;SDS011;23498;50.958;3.124;2022-10-30T04:47:11;20.42;;;9.93;;
37655;SDS011;23498;50.958;3.124;2022-10-30T04:49:39;18.73;;;9.68;;
37655;SDS011;23498;50.958;3.124;2022-10-30T04:52:05;17.50;;;9.82;;
37655;SDS011;23498;50.958;3.124;2022-10-30T04:54:31;17.15;;;10.18;;
37655;SDS011;23498;50.958;3.124;2022-10-30T04:56:57;17.10;;;10.63;;
37655;SDS011;23498;50.958;3.124;2022-10-30T04:59:23;16.80;;;9.27;;
37655;SDS011;23498;50.958;3.124;2022-10-30T05:01:49;20.88;;;10.20;;
37655;SDS011;23498;50.958;3.124;2022-10-30T05:04:15;20.52;;;10.15;;
37655;SDS011;23498;50.958;3.124;2022-10-30T05:06:41;18.40;;;9.82;;
37655;SDS011;23498;50.958;3.124;2022-10-30T05:09:07;19.63;;;9.48;;
37655;SDS011;23498;50.958;3.124;2022-10-30T05:11:33;18.70;;;9.90;;
37655;SDS011;23498;50.958;3.124;2022-10-30T05:13:59;20.35;;;10.38;;
37655;SDS011;23498;50.958;3.124;2022-10-30T05:16:25;19.58;;;10.38;;
37655;SDS011;23498;50.958;3.124;2022-10-30T05:18:51;17.83;;;10.07;;
37655;SDS011;23498;50.958;3.124;2022-10-30T05:21:17;16.90;;;9.70;;
37655;SDS011;23498;50.958;3.124;2022-10-30T05:23:43;16.55;;;9.75;;
37655;SDS011;23498;50.958;3.124;2022-10-30T05:26:09;22.42;;;10.90;;
37655;SDS011;23498;50.958;3.124;2022-10-30T05:28:35;21.55;;;10.73;;
37655;SDS011;23498;50.958;3.124;2022-10-30T05:31:01;18.17;;;11.30;;
37655;SDS011;23498;50.958;3.124;2022-10-30T05:33:27;17.83;;;10.60;;
37655;SDS011;23498;50.958;3.124;2022-10-30T05:35:53;22.92;;;12.50;;
37655;SDS011;23498;50.958;3.124;2022-10-30T05:38:19;23.88;;;12.88;;
37655;SDS011;23498;50.958;3.124;2022-10-30T05:40:45;24.90;;;13.82;;
37655;SDS011;23498;50.958;3.124;2022-10-30T05:43:11;25.35;;;14.40;;
37655;SDS011;23498;50.958;3.124;2022-10-30T05:45:37;21.75;;;14.43;;
37655;SDS011;23498;50.958;3.124;2022-10-30T05:48:04;21.23;;;13.32;;
37655;SDS011;23498;50.958;3.124;2022-10-30T05:50:30;23.08;;;13.65;;
37655;SDS011;23498;50.958;3.124;2022-10-30T05:52:59;22.15;;;12.75;;
37655;SDS011;23498;50.958;3.124;2022-10-30T05:55:25;23.63;;;13.27;;
37655;SDS011;23498;50.958;3.124;2022-10-30T05:57:58;25.48;;;13.15;;
37655;SDS011;23498;50.958;3.124;2022-10-30T06:00:24;22.20;;;12.07;;
37655;SDS011;23498;50.958;3.124;2022-10-30T06:02:50;18.98;;;11.52;;
37655;SDS011;23498;50.958;3.124;2022-10-30T06:05:16;24.52;;;10.90;;
37655;SDS011;23498;50.958;3.124;2022-10-30T06:07:42;22.13;;;10.65;;
37655;SDS011;23498;50.958;3.124;2022-10-30T06:10:08;17.48;;;10.18;;
37655;SDS011;23498;50.958;3.124;2022-10-30T06:12:34;22.60;;;10.68;;
37655;SDS011;23498;50.958;3.124;2022-10-30T06:15:00;16.85;;;9.27;;
37655;SDS011;23498;50.958;3.124;2022-10-30T06:17:28;22.02;;;11.88;;
37655;SDS011;23498;50.958;3.124;2022-10-30T06:19:54;23.52;;;12.73;;
37655;SDS011;23498;50.958;3.124;2022-10-30T06:22:20;21.27;;;12.05;;
37655;SDS011;23498;50.958;3.124;2022-10-30T06:24:46;23.50;;;12.98;;
37655;SDS011;23498;50.958;3.124;2022-10-30T06:27:12;27.23;;;13.55;;
37655;SDS011;23498;50.958;3.124;2022-10-30T06:29:38;20.13;;;12.13;;
37655;SDS011;23498;50.958;3.124;2022-10-30T06:32:04;22.13;;;12.40;;
37655;SDS011;23498;50.958;3.124;2022-10-30T06:34:30;19.67;;;10.82;;
37655;SDS011;23498;50.958;3.124;2022-10-30T06:36:56;18.70;;;10.45;;
37655;SDS011;23498;50.958;3.124;2022-10-30T06:39:22;21.73;;;11.32;;
37655;SDS011;23498;50.958;3.124;2022-10-30T06:41:48;18.52;;;10.43;;
37655;SDS011;23498;50.958;3.124;2022-10-30T06:44:15;22.05;;;11.05;;
37655;SDS011;23498;50.958;3.124;2022-10-30T06:46:42;17.00;;;10.65;;
37655;SDS011;23498;50.958;3.124;2022-10-30T06:49:08;18.45;;;11.05;;
37655;SDS011;23498;50.958;3.124;2022-10-30T06:51:34;22.05;;;12.68;;
37655;SDS011;23498;50.958;3.124;2022-10-30T06:54:00;21.88;;;13.60;;
37655;SDS011;23498;50.958;3.124;2022-10-30T06:56:26;25.70;;;13.60;;
37655;SDS011;23498;50.958;3.124;2022-10-30T06:58:52;25.00;;;13.73;;
37655;SDS011;23498;50.958;3.124;2022-10-30T07:01:18;21.33;;;13.70;;
37655;SDS011;23498;50.958;3.124;2022-10-30T07:03:44;23.77;;;12.60;;
37655;SDS011;23498;50.958;3.124;2022-10-30T07:06:10;25.00;;;12.25;;
37655;SDS011;23498;50.958;3.124;2022-10-30T07:08:36;22.83;;;12.25;;
37655;SDS011;23498;50.958;3.124;2022-10-30T07:11:02;19.90;;;11.88;;
37655;SDS011;23498;50.958;3.124;2022-10-30T07:13:27;21.02;;;12.10;;
37655;SDS011;23498;50.958;3.124;2022-10-30T07:15:53;24.27;;;12.40;;
37655;SDS011;23498;50.958;3.124;2022-10-30T07:18:19;22.42;;;12.60;;
37655;SDS011;23498;50.958;3.124;2022-10-30T07:20:45;25.88;;;15.30;;
37655;SDS011;23498;50.958;3.124;2022-10-30T07:23:11;25.13;;;15.23;;
37655;SDS011;23498;50.958;3.124;2022-10-30T07:25:37;26.33;;;15.55;;
37655;SDS011;23498;50.958;3.124;2022-10-30T07:28:03;28.27;;;14.57;;
37655;SDS011;23498;50.958;3.124;2022-10-30T07:30:29;22.48;;;13.57;;
37655;SDS011;23498;50.958;3.124;2022-10-30T07:32:59;22.45;;;13.15;;
37655;SDS011;23498;50.958;3.124;2022-10-30T07:35:26;20.10;;;11.45;;
37655;SDS011;23498;50.958;3.124;2022-10-30T07:37:52;17.98;;;10.75;;
37655;SDS011;23498;50.958;3.124;2022-10-30T07:40:18;18.85;;;10.90;;
37655;SDS011;23498;50.958;3.124;2022-10-30T07:42:44;19.77;;;10.95;;
37655;SDS011;23498;50.958;3.124;2022-10-30T07:45:10;17.45;;;11.13;;
37655;SDS011;23498;50.958;3.124;2022-10-30T07:47:40;22.38;;;11.98;;
37655;SDS011;23498;50.958;3.124;2022-10-30T07:50:06;23.45;;;12.38;;
37655;SDS011;23498;50.958;3.124;2022-10-30T07:52:32;23.05;;;12.18;;
37655;SDS011;23498;50.958;3.124;2022-10-30T07:54:58;22.55;;;12.93;;
37655;SDS011;23498;50.958;3.124;2022-10-30T07:57:24;20.77;;;11.27;;
37655;SDS011;23498;50.958;3.124;2022-10-30T07:59:50;20.73;;;10.93;;
37655;SDS011;23498;50.958;3.124;2022-10-30T08:02:16;20.40;;;10.77;;
37655;SDS011;23498;50.958;3.124;2022-10-30T08:04:42;21.00;;;10.43;;
37655;SDS011;23498;50.958;3.124;2022-10-30T08:07:08;18.48;;;9.73;;
37655;SDS011;23498;50.958;3.124;2022-10-30T08:09:34;19.58;;;10.95;;
37655;SDS011;23498;50.958;3.124;2022-10-30T08:12:00;17.25;;;10.15;;
37655;SDS011;23498;50.958;3.124;2022-10-30T08:14:26;23.75;;;10.13;;
37655;SDS011;23498;50.958;3.124;2022-10-30T08:16:52;18.20;;;10.23;;
37655;SDS011;23498;50.958;3.124;2022-10-30T08:19:19;19.33;;;9.43;;
37655;SDS011;23498;50.958;3.124;2022-10-30T08:21:45;21.38;;;9.98;;
37655;SDS011;23498;50.958;3.124;2022-10-30T08:24:11;22.10;;;10.57;;
37655;SDS011;23498;50.958;3.124;2022-10-30T08:26:37;17.90;;;9.85;;
37655;SDS011;23498;50.958;3.124;2022-10-30T08:29:03;18.80;;;9.23;;
37655;SDS011;23498;50.958;3.124;2022-10-30T08:31:29;16.48;;;9.70;;
37655;SDS011;23498;50.958;3.124;2022-10-30T08:33:55;23.10;;;9.48;;
37655;SDS011;23498;50.958;3.124;2022-10-30T08:36:21;21.90;;;9.65;;
37655;SDS011;23498;50.958;3.124;2022-10-30T08:38:47;18.98;;;10.68;;
37655;SDS011;23498;50.958;3.124;2022-10-30T08:41:13;19.70;;;9.93;;
37655;SDS011;23498;50.958;3.124;2022-10-30T08:43:39;20.48;;;10.68;;
37655;SDS011;23498;50.958;3.124;2022-10-30T08:46:05;20.90;;;10.18;;
37655;SDS011;23498;50.958;3.124;2022-10-30T08:48:31;17.83;;;9.68;;
37655;SDS011;23498;50.958;3.124;2022-10-30T08:50:57;18.55;;;10.10;;
37655;SDS011;23498;50.958;3.124;2022-10-30T08:53:25;21.15;;;10.32;;
37655;SDS011;23498;50.958;3.124;2022-10-30T08:55:51;17.85;;;9.57;;
37655;SDS011;23498;50.958;3.124;2022-10-30T08:58:17;19.17;;;9.70;;
37655;SDS011;23498;50.958;3.124;2022-10-30T09:00:43;18.48;;;9.23;;
37655;SDS011;23498;50.958;3.124;2022-10-30T09:03:09;19.55;;;9.15;;
37655;SDS011;23498;50.958;3.124;2022-10-30T09:05:35;20.23;;;8.85;;
37655;SDS011;23498;50.958;3.124;2022-10-30T09:08:01;17.35;;;9.02;;
37655;SDS011;23498;50.958;3.124;2022-10-30T09:10:27;15.95;;;8.52;;
37655;SDS011;23498;50.958;3.124;2022-10-30T09:12:54;14.40;;;8.43;;
37655;SDS011;23498;50.958;3.124;2022-10-30T09:15:20;17.42;;;8.20;;
37655;SDS011;23498;50.958;3.124;2022-10-30T09:17:46;15.45;;;8.07;;
37655;SDS011;23498;50.958;3.124;2022-10-30T09:20:12;15.18;;;7.80;;
37655;SDS011;23498;50.958;3.124;2022-10-30T09:22:41;17.92;;;8.30;;
37655;SDS011;23498;50.958;3.124;2022-10-30T09:25:07;14.02;;;7.88;;
37655;SDS011;23498;50.958;3.124;2022-10-30T09:27:37;15.63;;;8.02;;
37655;SDS011;23498;50.958;3.124;2022-10-30T09:30:03;14.07;;;7.45;;
37655;SDS011;23498;50.958;3.124;2022-10-30T09:32:30;13.23;;;7.45;;
37655;SDS011;23498;50.958;3.124;2022-10-30T09:34:56;14.65;;;7.68;;
37655;SDS011;23498;50.958;3.124;2022-10-30T09:37:22;15.15;;;7.50;;
37655;SDS011;23498;50.958;3.124;2022-10-30T09:39:48;12.73;;;7.10;;
37655;SDS011;23498;50.958;3.124;2022-10-30T09:58:19;11.65;;;5.95;;
37655;SDS011;23498;50.958;3.124;2022-10-30T10:00:49;16.88;;;6.50;;
37655;SDS011;23498;50.958;3.124;2022-10-30T10:03:24;11.57;;;6.35;;
37655;SDS011;23498;50.958;3.124;2022-10-30T10:05:56;11.10;;;6.30;;
37655;SDS011;23498;50.958;3.124;2022-10-30T10:08:32;15.95;;;7.10;;
37655;SDS011;23498;50.958;3.124;2022-10-30T10:11:05;14.43;;;7.30;;
37655;SDS011;23498;50.958;3.124;2022-10-30T10:13:38;13.43;;;7.45;;
37655;SDS011;23498;50.958;3.124;2022-10-30T10:18:43;17.17;;;8.25;;
37655;SDS011;23498;50.958;3.124;2022-10-30T10:21:15;16.20;;;8.55;;
37655;SDS011;23498;50.958;3.124;2022-10-30T10:23:45;13.02;;;7.57;;
37655;SDS011;23498;50.958;3.124;2022-10-30T10:31:38;14.90;;;7.20;;
37655;SDS011;23498;50.958;3.124;2022-10-30T10:34:13;14.73;;;7.22;;
37655;SDS011;23498;50.958;3.124;2022-10-30T10:36:49;12.20;;;7.07;;
37655;SDS011;23498;50.958;3.124;2022-10-30T10:39:32;13.13;;;6.95;;
37655;SDS011;23498;50.958;3.124;2022-10-30T10:44:53;13.93;;;7.40;;
37655;SDS011;23498;50.958;3.124;2022-10-30T10:52:21;12.02;;;7.25;;
37655;SDS011;23498;50.958;3.124;2022-10-30T10:54:55;13.05;;;7.13;;
37655;SDS011;23498;50.958;3.124;2022-10-30T10:59:49;12.63;;;6.45;;
37655;SDS011;23498;50.958;3.124;2022-10-30T11:02:27;15.52;;;6.25;;
37655;SDS011;23498;50.958;3.124;2022-10-30T11:04:55;10.98;;;5.25;;
37655;SDS011;23498;50.958;3.124;2022-10-30T11:07:30;11.00;;;5.63;;
37655;SDS011;23498;50.958;3.124;2022-10-30T11:09:57;11.10;;;5.40;;
37655;SDS011;23498;50.958;3.124;2022-10-30T11:12:28;7.88;;;5.38;;
37655;SDS011;23498;50.958;3.124;2022-10-30T11:14:58;9.20;;;5.13;;
37655;SDS011;23498;50.958;3.124;2022-10-30T11:17:47;10.10;;;5.07;;
37655;SDS011;23498;50.958;3.124;2022-10-30T11:20:17;10.27;;;4.95;;
37655;SDS011;23498;50.958;3.124;2022-10-30T11:22:48;11.30;;;5.80;;
37655;SDS011;23498;50.958;3.124;2022-10-30T11:27:47;12.20;;;6.22;;
37655;SDS011;23498;50.958;3.124;2022-10-30T11:30:18;11.68;;;5.40;;
37655;SDS011;23498;50.958;3.124;2022-10-30T11:32:44;10.93;;;5.65;;
37655;SDS011;23498;50.958;3.124;2022-10-30T11:37:37;10.75;;;6.00;;
37655;SDS011;23498;50.958;3.124;2022-10-30T11:45:13;10.30;;;5.60;;
37655;SDS011;23498;50.958;3.124;2022-10-30T11:47:39;8.70;;;5.18;;
37655;SDS011;23498;50.958;3.124;2022-10-30T11:50:16;11.65;;;5.30;;
37655;SDS011;23498;50.958;3.124;2022-10-30T11:52:45;10.20;;;5.53;;
37655;SDS011;23498;50.958;3.124;2022-10-30T11:55:17;10.73;;;5.47;;
37655;SDS011;23498;50.958;3.124;2022-10-30T11:58:05;10.40;;;5.57;;
37655;SDS011;23498;50.958;3.124;2022-10-30T12:00:31;10.52;;;5.00;;
37655;SDS011;23498;50.958;3.124;2022-10-30T12:02:58;13.35;;;5.32;;
37655;SDS011;23498;50.958;3.124;2022-10-30T12:07:54;10.68;;;5.07;;
37655;SDS011;23498;50.958;3.124;2022-10-30T12:13:04;11.90;;;5.43;;
37655;SDS011;23498;50.958;3.124;2022-10-30T12:15:34;9.63;;;5.25;;
37655;SDS011;23498;50.958;3.124;2022-10-30T12:18:07;11.60;;;5.20;;
37655;SDS011;23498;50.958;3.124;2022-10-30T12:20:47;8.95;;;4.95;;
37655;SDS011;23498;50.958;3.124;2022-10-30T12:23:15;12.65;;;5.07;;
37655;SDS011;23498;50.958;3.124;2022-10-30T12:25:46;8.77;;;4.80;;
37655;SDS011;23498;50.958;3.124;2022-10-30T12:28:14;9.95;;;5.05;;
37655;SDS011;23498;50.958;3.124;2022-10-30T12:30:48;8.93;;;5.18;;
37655;SDS011;23498;50.958;3.124;2022-10-30T12:33:15;10.73;;;4.70;;
37655;SDS011;23498;50.958;3.124;2022-10-30T12:35:44;12.30;;;5.22;;
37655;SDS011;23498;50.958;3.124;2022-10-30T12:43:51;8.52;;;3.97;;
37655;SDS011;23498;50.958;3.124;2022-10-30T12:46:32;5.95;;;3.13;;
37655;SDS011;23498;50.958;3.124;2022-10-30T12:51:40;6.78;;;2.00;;
37655;SDS011;23498;50.958;3.124;2022-10-30T12:54:19;8.20;;;1.98;;
37655;SDS011;23498;50.958;3.124;2022-10-30T12:56:48;8.07;;;1.60;;
37655;SDS011;23498;50.958;3.124;2022-10-30T12:59:19;7.88;;;1.80;;
37655;SDS011;23498;50.958;3.124;2022-10-30T13:04:16;7.45;;;1.88;;
37655;SDS011;23498;50.958;3.124;2022-10-30T13:12:17;6.68;;;1.52;;
37655;SDS011;23498;50.958;3.124;2022-10-30T13:14:46;6.13;;;1.38;;
37655;SDS011;23498;50.958;3.124;2022-10-30T13:17:14;6.13;;;1.25;;
37655;SDS011;23498;50.958;3.124;2022-10-30T13:19:41;6.78;;;1.02;;
37655;SDS011;23498;50.958;3.124;2022-10-30T13:22:11;8.63;;;1.48;;
37655;SDS011;23498;50.958;3.124;2022-10-30T13:24:59;7.05;;;1.50;;
37655;SDS011;23498;50.958;3.124;2022-10-30T13:27:34;5.90;;;1.20;;
37655;SDS011;23498;50.958;3.124;2022-10-30T13:30:07;5.60;;;1.75;;
37655;SDS011;23498;50.958;3.124;2022-10-30T13:40:13;8.48;;;1.55;;
37655;SDS011;23498;50.958;3.124;2022-10-30T13:42:44;4.55;;;1.20;;
37655;SDS011;23498;50.958;3.124;2022-10-30T13:45:22;5.20;;;1.17;;
37655;SDS011;23498;50.958;3.124;2022-10-30T13:50:24;4.93;;;1.20;;
37655;SDS011;23498;50.958;3.124;2022-10-30T13:52:55;5.63;;;1.60;;
37655;SDS011;23498;50.958;3.124;2022-10-30T13:55:24;5.80;;;1.30;;
37655;SDS011;23498;50.958;3.124;2022-10-30T13:57:53;4.20;;;1.20;;
37655;SDS011;23498;50.958;3.124;2022-10-30T14:07:52;7.22;;;1.17;;
37655;SDS011;23498;50.958;3.124;2022-10-30T14:15:32;5.10;;;1.00;;
37655;SDS011;23498;50.958;3.124;2022-10-30T14:20:48;6.68;;;1.33;;
37655;SDS011;23498;50.958;3.124;2022-10-30T14:28:32;5.68;;;1.25;;
37655;SDS011;23498;50.958;3.124;2022-10-30T14:31:02;3.85;;;1.10;;
37655;SDS011;23498;50.958;3.124;2022-10-30T14:33:42;4.65;;;1.85;;
37655;SDS011;23498;50.958;3.124;2022-10-30T14:38:55;3.30;;;1.05;;
37655;SDS011;23498;50.958;3.124;2022-10-30T14:41:31;4.25;;;1.42;;
37655;SDS011;23498;50.958;3.124;2022-10-30T14:47:10;4.32;;;1.23;;
37655;SDS011;23498;50.958;3.124;2022-10-30T14:49:41;5.07;;;1.88;;
37655;SDS011;23498;50.958;3.124;2022-10-30T14:52:29;5.30;;;1.60;;
37655;SDS011;23498;50.958;3.124;2022-10-30T14:55:18;4.90;;;1.00;;
37655;SDS011;23498;50.958;3.124;2022-10-30T14:57:51;3.30;;;1.08;;
37655;SDS011;23498;50.958;3.124;2022-10-30T15:03:09;6.32;;;1.50;;
37655;SDS011;23498;50.958;3.124;2022-10-30T15:13:31;5.28;;;1.83;;
37655;SDS011;23498;50.958;3.124;2022-10-30T15:16:04;3.83;;;1.30;;
37655;SDS011;23498;50.958;3.124;2022-10-30T15:18:31;5.80;;;1.10;;
37655;SDS011;23498;50.958;3.124;2022-10-30T15:20:59;4.30;;;1.20;;
37655;SDS011;23498;50.958;3.124;2022-10-30T15:23:28;2.95;;;0.98;;
37655;SDS011;23498;50.958;3.124;2022-10-30T15:25:55;4.13;;;1.05;;
37655;SDS011;23498;50.958;3.124;2022-10-30T15:28:27;2.33;;;1.02;;
37655;SDS011;23498;50.958;3.124;2022-10-30T15:30:59;5.10;;;1.13;;
37655;SDS011;23498;50.958;3.124;2022-10-30T15:33:26;4.50;;;1.27;;
37655;SDS011;23498;50.958;3.124;2022-10-30T15:35:52;3.28;;;1.17;;
37655;SDS011;23498;50.958;3.124;2022-10-30T15:38:18;4.47;;;1.38;;
37655;SDS011;23498;50.958;3.124;2022-10-30T15:40:44;2.80;;;1.00;;
37655;SDS011;23498;50.958;3.124;2022-10-30T15:43:10;3.42;;;1.40;;
37655;SDS011;23498;50.958;3.124;2022-10-30T15:45:44;3.42;;;1.40;;
37655;SDS011;23498;50.958;3.124;2022-10-30T15:48:24;2.97;;;1.23;;
37655;SDS011;23498;50.958;3.124;2022-10-30T15:51:01;4.38;;;1.27;;
37655;SDS011;23498;50.958;3.124;2022-10-30T15:53:50;4.20;;;1.23;;
37655;SDS011;23498;50.958;3.124;2022-10-30T15:56:35;3.15;;;1.00;;
37655;SDS011;23498;50.958;3.124;2022-10-30T15:59:03;5.32;;;1.30;;
37655;SDS011;23498;50.958;3.124;2022-10-30T16:01:33;3.88;;;1.35;;
37655;SDS011;23498;50.958;3.124;2022-10-30T16:04:02;3.22;;;1.20;;
37655;SDS011;23498;50.958;3.124;2022-10-30T16:06:30;4.63;;;1.13;;
37655;SDS011;23498;50.958;3.124;2022-10-30T16:08:56;4.13;;;1.30;;
37655;SDS011;23498;50.958;3.124;2022-10-30T16:11:23;3.88;;;1.10;;
37655;SDS011;23498;50.958;3.124;2022-10-30T16:13:50;3.92;;;0.98;;
37655;SDS011;23498;50.958;3.124;2022-10-30T16:16:26;3.15;;;1.10;;
37655;SDS011;23498;50.958;3.124;2022-10-30T16:18:56;5.05;;;1.13;;
37655;SDS011;23498;50.958;3.124;2022-10-30T16:21:24;4.32;;;1.00;;
37655;SDS011;23498;50.958;3.124;2022-10-30T16:23:55;3.17;;;1.40;;
37655;SDS011;23498;50.958;3.124;2022-10-30T16:28:50;5.30;;;1.20;;
37655;SDS011;23498;50.958;3.124;2022-10-30T16:31:18;4.78;;;1.10;;
37655;SDS011;23498;50.958;3.124;2022-10-30T16:33:45;2.78;;;1.00;;
37655;SDS011;23498;50.958;3.124;2022-10-30T16:36:12;3.05;;;1.00;;
37655;SDS011;23498;50.958;3.124;2022-10-30T16:38:40;3.92;;;0.93;;
37655;SDS011;23498;50.958;3.124;2022-10-30T16:41:07;3.40;;;0.90;;
37655;SDS011;23498;50.958;3.124;2022-10-30T16:43:37;3.58;;;1.20;;
37655;SDS011;23498;50.958;3.124;2022-10-30T16:48:44;3.00;;;1.10;;
37655;SDS011;23498;50.958;3.124;2022-10-30T16:51:15;4.65;;;1.30;;
37655;SDS011;23498;50.958;3.124;2022-10-30T16:53:49;3.75;;;1.20;;
37655;SDS011;23498;50.958;3.124;2022-10-30T16:56:25;2.60;;;1.13;;
37655;SDS011;23498;50.958;3.124;2022-10-30T16:58:51;4.40;;;1.20;;
37655;SDS011;23498;50.958;3.124;2022-10-30T17:01:22;3.40;;;1.30;;
37655;SDS011;23498;50.958;3.124;2022-10-30T17:03:49;22.65;;;7.50;;